createdAt,value
2023-01-02T00:00:04.361Z,935.37
2023-01-02T00:01:04.318Z,935.91
2023-01-02T00:02:04.282Z,936.23
2023-01-02T00:03:04.564Z,936.34
2023-01-02T00:04:04.345Z,936.66
2023-01-02T00:05:04.299Z,937.16
2023-01-02T00:06:04.284Z,937.91
2023-01-02T00:07:04.288Z,938.09
2023-01-02T00:08:04.293Z,938.14
2023-01-02T00:09:04.288Z,938.91
2023-01-02T00:10:04.303Z,939.22
2023-01-02T00:11:04.287Z,939.51
2023-01-02T00:12:04.298Z,939.64
2023-01-02T00:13:04.292Z,939.49
2023-01-02T00:14:04.294Z,939.4
2023-01-02T00:15:04.440Z,939.01
2023-01-02T00:16:04.326Z,938.83
2023-01-02T00:17:04.304Z,938.04
2023-01-02T00:18:04.309Z,937.65
2023-01-02T00:19:04.336Z,937.05
2023-01-02T00:20:04.307Z,936.69
2023-01-02T00:21:04.305Z,935.81
2023-01-02T00:22:04.306Z,934.67
2023-01-02T00:23:04.316Z,932.88
2023-01-02T00:24:04.339Z,931.36
2023-01-02T00:25:04.332Z,929.57
2023-01-02T00:26:04.322Z,928.04
2023-01-02T00:27:04.314Z,926.47
2023-01-02T00:28:04.320Z,925.58
2023-01-02T00:29:04.333Z,923.63
2023-01-02T00:30:04.332Z,921.98
2023-01-02T00:31:04.341Z,920.8
2023-01-02T00:32:04.336Z,919.55
2023-01-02T00:33:04.323Z,918.02
2023-01-02T00:34:04.331Z,916.91
2023-01-02T00:35:04.350Z,915.69
2023-01-02T00:36:04.327Z,914.85
2023-01-02T00:37:04.335Z,913.67
2023-01-02T00:38:04.336Z,912.92
2023-01-02T00:39:04.333Z,911.98
2023-01-02T00:40:04.342Z,911.39
2023-01-02T00:41:04.339Z,910.49
2023-01-02T00:42:04.349Z,909.94
2023-01-02T00:43:04.350Z,909.64
2023-01-02T00:44:04.386Z,909.89
2023-01-02T00:45:04.343Z,910.77
2023-01-02T00:46:09.407Z,911.2
2023-01-02T00:47:04.469Z,911.79
2023-01-02T00:48:04.361Z,913.38
2023-01-02T00:49:04.381Z,914.27
2023-01-02T00:50:04.359Z,915.75
2023-01-02T00:51:04.394Z,916.82
2023-01-02T00:52:04.363Z,917.91
2023-01-02T00:53:04.356Z,918.65
2023-01-02T00:54:04.941Z,919.33
2023-01-02T00:55:04.365Z,921.25
2023-01-02T00:56:04.363Z,921.61
2023-01-02T00:57:04.361Z,922.29
2023-01-02T00:58:04.367Z,922.25
2023-01-02T00:59:04.368Z,922.18
2023-01-02T01:00:04.380Z,922.49
2023-01-02T01:01:04.450Z,923.13
2023-01-02T01:02:04.441Z,923.55
2023-01-02T01:03:04.427Z,924.24
2023-01-02T01:04:04.371Z,924.72
2023-01-02T01:05:07.169Z,925.65
2023-01-02T01:06:04.384Z,926.02
2023-01-02T01:07:04.405Z,926.48
2023-01-02T01:08:04.391Z,927.15
2023-01-02T01:09:04.402Z,927.97
2023-01-02T01:10:04.381Z,927.8
2023-01-02T01:11:04.386Z,927.91
2023-01-02T01:12:05.157Z,927.74
2023-01-02T01:13:04.397Z,927.51
2023-01-02T01:14:04.401Z,927.04
2023-01-02T01:15:04.394Z,927.07
2023-01-02T01:16:07.576Z,926.65
2023-01-02T01:17:04.413Z,926.31
2023-01-02T01:18:04.399Z,925.7
2023-01-02T01:19:04.395Z,924.46
2023-01-02T01:20:04.398Z,923.95
2023-01-02T01:21:04.408Z,923.17
2023-01-02T01:22:04.398Z,922.43
2023-01-02T01:23:04.427Z,921.73
2023-01-02T01:24:04.410Z,921.21
2023-01-02T01:25:04.464Z,921.19
2023-01-02T01:26:04.415Z,921.23
2023-01-02T01:27:07.235Z,920.78
2023-01-02T01:28:04.425Z,920.1
2023-01-02T01:29:04.409Z,919.92
2023-01-02T01:30:04.419Z,919.47
2023-01-02T01:31:04.436Z,919.34
2023-01-02T01:32:04.417Z,919.04
2023-01-02T01:33:04.422Z,919.42
2023-01-02T01:34:04.423Z,919.55
2023-01-02T01:35:04.421Z,919.53
2023-01-02T01:36:04.434Z,919.87
2023-01-02T01:37:04.443Z,919.89
2023-01-02T01:38:04.429Z,919.12
2023-01-02T01:39:04.459Z,918.88
2023-01-02T01:40:04.437Z,918.41
2023-01-02T01:41:04.439Z,917.87
2023-01-02T01:42:04.430Z,917.57
2023-01-02T01:43:04.453Z,916.67
2023-01-02T01:44:04.444Z,916.55
2023-01-02T01:45:04.438Z,915.47
2023-01-02T01:46:04.506Z,915.14
2023-01-02T01:47:04.438Z,914.72
2023-01-02T01:48:04.440Z,914.41
2023-01-02T01:49:04.440Z,913.79
2023-01-02T01:50:05.736Z,913.43
2023-01-02T01:51:04.447Z,913
2023-01-02T01:52:04.476Z,912.98
2023-01-02T01:53:04.456Z,912.81
2023-01-02T01:54:04.461Z,912.43
2023-01-02T01:55:04.480Z,912.01
2023-01-02T01:56:04.452Z,912.35
2023-01-02T01:57:04.470Z,912.22
2023-01-02T01:58:04.465Z,912.22
2023-01-02T01:59:04.464Z,912.87
2023-01-02T02:00:04.467Z,913.43
2023-01-02T02:01:04.513Z,914.06
2023-01-02T02:02:04.626Z,914.76
2023-01-02T02:03:04.511Z,915.23
2023-01-02T02:04:04.482Z,916.21
2023-01-02T02:05:04.475Z,916.27
2023-01-02T02:06:04.475Z,915.67
2023-01-02T02:07:04.481Z,915.36
2023-01-02T02:08:04.476Z,915.25
2023-01-02T02:09:04.609Z,914.89
2023-01-02T02:10:04.498Z,914.17
2023-01-02T02:11:04.638Z,914.1
2023-01-02T02:12:04.477Z,914.68
2023-01-02T02:13:04.479Z,914.73
2023-01-02T02:14:04.500Z,914.96
2023-01-02T02:15:04.484Z,915.32
2023-01-02T02:16:04.553Z,915.27
2023-01-02T02:17:04.498Z,915.37
2023-01-02T02:18:04.490Z,914.95
2023-01-02T02:19:04.510Z,915.07
2023-01-02T02:20:04.499Z,915.09
2023-01-02T02:21:04.502Z,914.44
2023-01-02T02:22:04.500Z,914.44
2023-01-02T02:23:04.506Z,913.71
2023-01-02T02:24:04.509Z,913.59
2023-01-02T02:25:04.504Z,912.97
2023-01-02T02:26:04.506Z,912.48
2023-01-02T02:27:04.527Z,912.13
2023-01-02T02:28:04.502Z,911.72
2023-01-02T02:29:04.515Z,911.51
2023-01-02T02:30:04.512Z,911.19
2023-01-02T02:31:04.516Z,910.3
2023-01-02T02:32:04.529Z,910.03
2023-01-02T02:33:04.513Z,909.28
2023-01-02T02:34:04.515Z,908.37
2023-01-02T02:35:04.516Z,908
2023-01-02T02:36:04.530Z,906.75
2023-01-02T02:37:04.526Z,906.04
2023-01-02T02:38:04.529Z,905.67
2023-01-02T02:39:04.528Z,905.1
2023-01-02T02:40:04.523Z,904.78
2023-01-02T02:41:04.531Z,904.07
2023-01-02T02:42:04.527Z,902.69
2023-01-02T02:43:04.560Z,902.44
2023-01-02T02:44:04.537Z,901.82
2023-01-02T02:45:04.531Z,901.14
2023-01-02T02:46:04.568Z,900.74
2023-01-02T02:47:04.544Z,900.6
2023-01-02T02:48:04.534Z,899.62
2023-01-02T02:49:04.544Z,899.77
2023-01-02T02:50:04.536Z,899.52
2023-01-02T02:51:04.541Z,898.97
2023-01-02T02:52:04.556Z,898.47
2023-01-02T02:53:04.552Z,898.74
2023-01-02T02:54:04.548Z,898.52
2023-01-02T02:55:04.552Z,897.96
2023-01-02T02:56:04.559Z,897.45
2023-01-02T02:57:04.552Z,896.94
2023-01-02T02:58:04.551Z,896.03
2023-01-02T02:59:04.581Z,895.82
2023-01-02T03:00:04.552Z,895.19
2023-01-02T03:01:04.649Z,894.64
2023-01-02T03:02:04.656Z,893.4
2023-01-02T03:03:04.718Z,892.85
2023-01-02T03:04:04.559Z,891.62
2023-01-02T03:05:04.574Z,890.34
2023-01-02T03:06:04.563Z,889.44
2023-01-02T03:07:04.585Z,888.28
2023-01-02T03:08:04.573Z,887.88
2023-01-02T03:09:04.573Z,887.92
2023-01-02T03:10:04.576Z,887.5
2023-01-02T03:11:04.570Z,887.28
2023-01-02T03:12:04.578Z,886.96
2023-01-02T03:13:04.585Z,886.61
2023-01-02T03:14:04.586Z,886.13
2023-01-02T03:15:04.694Z,885.93
2023-01-02T03:16:04.584Z,885.36
2023-01-02T03:17:04.626Z,885.05
2023-01-02T03:18:04.649Z,884.54
2023-01-02T03:19:04.596Z,883.62
2023-01-02T03:20:04.594Z,883.67
2023-01-02T03:21:07.769Z,883.45
2023-01-02T03:22:04.628Z,883.32
2023-01-02T03:23:04.591Z,883.06
2023-01-02T03:24:04.587Z,882.93
2023-01-02T03:25:04.601Z,883.07
2023-01-02T03:26:04.603Z,882.37
2023-01-02T03:27:04.603Z,881.86
2023-01-02T03:28:04.610Z,881.57
2023-01-02T03:29:04.597Z,880.49
2023-01-02T03:30:04.616Z,880.02
2023-01-02T03:31:04.783Z,879.61
2023-01-02T03:32:05.650Z,879.31
2023-01-02T03:33:04.619Z,878.6
2023-01-02T03:34:04.617Z,878.11
2023-01-02T03:35:04.623Z,878.52
2023-01-02T03:36:04.625Z,878.17
2023-01-02T03:37:04.629Z,878.03
2023-01-02T03:38:04.613Z,878.85
2023-01-02T03:39:04.621Z,878.38
2023-01-02T03:40:04.633Z,878.67
2023-01-02T03:41:04.625Z,878.77
2023-01-02T03:42:04.631Z,878.97
2023-01-02T03:43:07.411Z,879.07
2023-01-02T03:44:04.630Z,879.15
2023-01-02T03:45:04.639Z,878.99
2023-01-02T03:46:04.681Z,878.99
2023-01-02T03:47:04.663Z,878.88
2023-01-02T03:48:04.634Z,879.35
2023-01-02T03:49:04.635Z,879.05
2023-01-02T03:50:04.640Z,878.78
2023-01-02T03:51:04.637Z,878.51
2023-01-02T03:52:04.641Z,878.66
2023-01-02T03:53:04.648Z,878.66
2023-01-02T03:54:07.663Z,878.75
2023-01-02T03:55:04.646Z,879
2023-01-02T03:56:04.641Z,879.47
2023-01-02T03:57:04.649Z,878.91
2023-01-02T03:58:04.650Z,879.16
2023-01-02T03:59:04.660Z,879.08
2023-01-02T04:00:04.676Z,878.66
2023-01-02T04:01:04.842Z,878.67
2023-01-02T04:02:04.747Z,877.28
2023-01-02T04:03:04.711Z,877.11
2023-01-02T04:04:04.662Z,876.6
2023-01-02T04:05:04.677Z,876.3
2023-01-02T04:06:04.673Z,875.74
2023-01-02T04:07:04.663Z,874.92
2023-01-02T04:08:04.657Z,874.71
2023-01-02T04:09:04.663Z,874.36
2023-01-02T04:10:04.684Z,874.96
2023-01-02T04:11:04.663Z,874.85
2023-01-02T04:12:04.666Z,875.63
2023-01-02T04:13:04.676Z,875.57
2023-01-02T04:14:04.673Z,875.43
2023-01-02T04:15:04.690Z,875.34
2023-01-02T04:16:04.700Z,875.74
2023-01-02T04:17:04.676Z,875.08
2023-01-02T04:18:04.680Z,874.74
2023-01-02T04:19:04.802Z,874.71
2023-01-02T04:20:04.707Z,873.49
2023-01-02T04:21:04.679Z,873.39
2023-01-02T04:22:04.693Z,872.92
2023-01-02T04:23:04.682Z,872.86
2023-01-02T04:24:04.692Z,872.44
2023-01-02T04:25:04.720Z,871.95
2023-01-02T04:26:04.688Z,871.92
2023-01-02T04:27:04.699Z,872.24
2023-01-02T04:28:04.698Z,872.05
2023-01-02T04:29:04.691Z,871.53
2023-01-02T04:30:04.714Z,871.56
2023-01-02T04:31:04.740Z,872.01
2023-01-02T04:32:04.701Z,871.99
2023-01-02T04:33:04.709Z,872.03
2023-01-02T04:34:04.712Z,872.2
2023-01-02T04:35:04.755Z,872.19
2023-01-02T04:36:04.812Z,871.87
2023-01-02T04:37:04.708Z,872.13
2023-01-02T04:38:04.710Z,872.01
2023-01-02T04:39:04.703Z,871.89
2023-01-02T04:40:04.735Z,871.63
2023-01-02T04:41:04.742Z,871.06
2023-01-02T04:42:04.714Z,871.03
2023-01-02T04:43:04.721Z,870.31
2023-01-02T04:44:04.721Z,869.81
2023-01-02T04:45:04.745Z,869.31
2023-01-02T04:46:04.795Z,868.93
2023-01-02T04:47:04.839Z,868.66
2023-01-02T04:48:04.718Z,867.97
2023-01-02T04:49:04.724Z,867.46
2023-01-02T04:50:04.750Z,866.86
2023-01-02T04:51:04.791Z,866.67
2023-01-02T04:52:04.735Z,866.22
2023-01-02T04:53:04.731Z,866.05
2023-01-02T04:54:04.733Z,865.52
2023-01-02T04:55:04.757Z,865.47
2023-01-02T04:56:04.741Z,865.66
2023-01-02T04:57:04.735Z,865.31
2023-01-02T04:58:04.770Z,864.82
2023-01-02T04:59:04.787Z,865.2
2023-01-02T05:00:04.769Z,865.05
2023-01-02T05:01:04.738Z,865.62
2023-01-02T05:02:04.817Z,865.79
2023-01-02T05:03:04.763Z,865.81
2023-01-02T05:04:04.748Z,865.22
2023-01-02T05:05:04.875Z,865.66
2023-01-02T05:06:04.756Z,865.63
2023-01-02T05:07:04.775Z,865.71
2023-01-02T05:08:04.757Z,865.62
2023-01-02T05:09:04.782Z,865.69
2023-01-02T05:10:04.793Z,865.77
2023-01-02T05:11:04.756Z,864.93
2023-01-02T05:12:04.769Z,865.43
2023-01-02T05:13:04.763Z,864.77
2023-01-02T05:14:07.502Z,864.96
2023-01-02T05:15:04.793Z,865.27
2023-01-02T05:16:04.865Z,865.77
2023-01-02T05:17:04.767Z,866.82
2023-01-02T05:18:04.763Z,868.83
2023-01-02T05:19:04.772Z,870.02
2023-01-02T05:20:04.808Z,871.63
2023-01-02T05:21:04.773Z,873.96
2023-01-02T05:22:04.776Z,875.3
2023-01-02T05:23:04.800Z,878.2
2023-01-02T05:24:04.773Z,879.68
2023-01-02T05:25:04.807Z,881.97
2023-01-02T05:26:04.776Z,883.72
2023-01-02T05:27:04.777Z,885.19
2023-01-02T05:28:04.776Z,887.28
2023-01-02T05:29:04.788Z,888.8
2023-01-02T05:36:06.111Z,898.95
2023-01-02T05:37:04.798Z,900.01
2023-01-02T05:38:04.802Z,900.68
2023-01-02T05:39:04.829Z,901.12
2023-01-02T05:40:04.802Z,901.69
2023-01-02T05:41:04.842Z,901.77
2023-01-02T05:42:04.806Z,902.34
2023-01-02T05:43:04.809Z,902.36
2023-01-02T05:44:04.812Z,903.01
2023-01-02T05:45:04.834Z,903.53
2023-01-02T05:46:04.874Z,904.66
2023-01-02T05:47:04.832Z,905.88
2023-01-02T05:48:04.818Z,906.55
2023-01-02T05:49:04.814Z,907.77
2023-01-02T05:50:04.817Z,908.82
2023-01-02T05:51:04.816Z,909.22
2023-01-02T05:52:05.409Z,910.33
2023-01-02T05:53:04.826Z,910.43
2023-01-02T05:54:04.818Z,911.47
2023-01-02T05:55:04.866Z,911.81
2023-01-02T05:56:04.821Z,912.76
2023-01-02T05:57:04.820Z,913.1
2023-01-02T05:58:04.833Z,913.96
2023-01-02T05:59:04.828Z,914.09
2023-01-02T06:00:07.871Z,914.77
2023-01-02T06:01:04.838Z,915.35
2023-01-02T06:02:04.894Z,915.72
2023-01-02T06:03:05.045Z,915.48
2023-01-02T06:04:04.869Z,915.67
2023-01-02T06:05:04.870Z,914.9
2023-01-02T06:06:04.847Z,914.7
2023-01-02T06:07:04.897Z,913.47
2023-01-02T06:08:04.839Z,913.15
2023-01-02T06:09:04.850Z,912.38
2023-01-02T06:10:04.855Z,911.5
2023-01-02T06:11:07.754Z,911.44
2023-01-02T06:12:04.854Z,911.39
2023-01-02T06:13:04.863Z,911.17
2023-01-02T06:14:04.911Z,911.47
2023-01-02T06:15:04.888Z,911.96
2023-01-02T06:16:04.945Z,912.24
2023-01-02T06:17:04.873Z,912.35
2023-01-02T06:18:04.888Z,913.21
2023-01-02T06:19:04.860Z,913.39
2023-01-02T06:20:04.864Z,914.25
2023-01-02T06:21:04.867Z,914.73
2023-01-02T06:22:07.995Z,915.13
2023-01-02T06:23:04.873Z,915.39
2023-01-02T06:24:04.923Z,915.98
2023-01-02T06:25:04.893Z,916.11
2023-01-02T06:26:04.878Z,916.55
2023-01-02T06:27:04.920Z,917.05
2023-01-02T06:28:04.905Z,917.35
2023-01-02T06:29:04.927Z,918.51
2023-01-02T06:30:04.898Z,918.23
2023-01-02T06:31:04.991Z,918.8
2023-01-02T06:32:04.980Z,919.16
2023-01-02T06:33:07.960Z,919.25
2023-01-02T06:34:04.919Z,919.31
2023-01-02T06:35:04.890Z,919.05
2023-01-02T06:36:04.886Z,919.46
2023-01-02T06:37:09.616Z,919.29
2023-01-02T06:38:04.896Z,918.7
2023-01-02T06:39:04.927Z,918.21
2023-01-02T06:40:04.939Z,917.67
2023-01-02T06:41:04.928Z,917.61
2023-01-02T06:42:04.894Z,917.22
2023-01-02T06:43:04.939Z,916.77
2023-01-02T06:44:04.932Z,916.06
2023-01-02T06:45:04.908Z,915.7
2023-01-02T06:46:04.989Z,915.71
2023-01-02T06:47:04.902Z,915.17
2023-01-02T06:48:04.907Z,914.26
2023-01-02T06:49:04.939Z,913.63
2023-01-02T06:50:04.914Z,912.74
2023-01-02T06:51:04.913Z,912
2023-01-02T06:52:04.922Z,911.58
2023-01-02T06:53:04.952Z,911.38
2023-01-02T06:54:04.918Z,910.98
2023-01-02T06:55:04.913Z,911.21
2023-01-02T06:56:04.922Z,911.36
2023-01-02T06:57:04.919Z,911.73
2023-01-02T06:58:10.186Z,912.07
2023-01-02T06:59:05.006Z,912.13
2023-01-02T07:00:04.922Z,913.04
2023-01-02T07:01:05.008Z,913.34
2023-01-02T07:02:05.082Z,914.09
2023-01-02T07:03:04.978Z,914.19
2023-01-02T07:04:04.929Z,914.45
2023-01-02T07:05:04.974Z,914.68
2023-01-02T07:06:04.964Z,915.25
2023-01-02T07:07:04.937Z,915.85
2023-01-02T07:08:04.934Z,916.04
2023-01-02T07:09:04.938Z,916.31
2023-01-02T07:10:04.941Z,916.65
2023-01-02T07:11:04.954Z,917.05
2023-01-02T07:12:04.986Z,917.95
2023-01-02T07:13:04.964Z,918.16
2023-01-02T07:14:04.949Z,919.36
2023-01-02T07:15:05.025Z,919.7
2023-01-02T07:16:05.077Z,920.47
2023-01-02T07:17:04.958Z,921.04
2023-01-02T07:18:05.001Z,921.9
2023-01-02T07:19:04.962Z,922.85
2023-01-02T07:20:04.972Z,923.44
2023-01-02T07:21:04.978Z,923.81
2023-01-02T07:22:04.967Z,924.95
2023-01-02T07:23:04.973Z,924.94
2023-01-02T07:24:04.989Z,925
2023-01-02T07:25:04.974Z,924.66
2023-01-02T07:26:04.976Z,924.96
2023-01-02T07:27:04.981Z,925.25
2023-01-02T07:28:04.968Z,924.72
2023-01-02T07:29:04.968Z,924.72
2023-01-02T07:30:05.002Z,925.05
2023-01-02T07:31:04.995Z,925.28
2023-01-02T07:32:05.044Z,925.55
2023-01-02T07:33:04.974Z,925.22
2023-01-02T07:34:04.983Z,925.14
2023-01-02T07:35:05.003Z,925.07
2023-01-02T07:36:04.995Z,923.97
2023-01-02T07:37:05.008Z,923.65
2023-01-02T07:38:05.062Z,923.37
2023-01-02T07:39:05.024Z,922.46
2023-01-02T07:40:05.027Z,922.17
2023-01-02T07:41:04.995Z,921.69
2023-01-02T07:42:04.996Z,921.45
2023-01-02T07:43:05.025Z,920.76
2023-01-02T07:44:05.001Z,920.64
2023-01-02T07:45:05.042Z,919.85
2023-01-02T07:46:05.115Z,919.49
2023-01-02T07:47:05.022Z,919.68
2023-01-02T07:48:05.012Z,919.45
2023-01-02T07:49:05.005Z,919.66
2023-01-02T07:50:05.005Z,919.47
2023-01-02T07:51:05.033Z,919.34
2023-01-02T07:52:05.053Z,919.02
2023-01-02T07:53:05.042Z,918.29
2023-01-02T07:54:05.074Z,917.71
2023-01-02T07:55:05.137Z,916.69
2023-01-02T07:56:05.010Z,916.08
2023-01-02T07:57:05.033Z,915.09
2023-01-02T07:58:05.010Z,914.64
2023-01-02T07:59:05.023Z,913.85
2023-01-02T08:00:05.058Z,913.89
2023-01-02T08:01:05.755Z,913.27
2023-01-02T08:02:05.086Z,912.93
2023-01-02T08:03:05.058Z,913.16
2023-01-02T08:04:05.108Z,912.37
2023-01-02T08:05:05.035Z,912.61
2023-01-02T08:06:05.035Z,912.24
2023-01-02T08:07:05.044Z,911.67
2023-01-02T08:08:05.072Z,910.75
2023-01-02T08:09:05.078Z,910.46
2023-01-02T08:10:05.031Z,910.24
2023-01-02T08:11:05.055Z,910.34
2023-01-02T08:12:05.034Z,909.83
2023-01-02T08:13:05.057Z,910.17
2023-01-02T08:14:05.091Z,910.13
2023-01-02T08:15:05.086Z,910
2023-01-02T08:16:05.062Z,910.64
2023-01-02T08:17:05.153Z,911.21
2023-01-02T08:18:05.075Z,911.68
2023-01-02T08:19:05.168Z,911.57
2023-01-02T08:20:07.935Z,911.52
2023-01-02T08:21:05.053Z,911.79
2023-01-02T08:22:05.110Z,911.42
2023-01-02T08:23:05.064Z,911.64
2023-01-02T08:24:05.091Z,911.03
2023-01-02T08:25:05.100Z,911.22
2023-01-02T08:26:05.066Z,911.45
2023-01-02T08:27:06.174Z,911.31
2023-01-02T08:28:05.072Z,911.92
2023-01-02T08:29:05.108Z,912.17
2023-01-02T08:30:05.062Z,913.1
2023-01-02T08:31:05.129Z,913.48
2023-01-02T08:32:05.072Z,913.69
2023-01-02T08:33:05.077Z,915.13
2023-01-02T08:34:05.093Z,915.76
2023-01-02T08:35:05.116Z,916.25
2023-01-02T08:36:05.074Z,917.06
2023-01-02T08:37:05.087Z,918.18
2023-01-02T08:38:08.092Z,919.17
2023-01-02T08:39:05.087Z,920.11
2023-01-02T08:40:05.102Z,920.81
2023-01-02T08:41:05.107Z,922.13
2023-01-02T08:42:05.087Z,923.05
2023-01-02T08:43:05.082Z,924.14
2023-01-02T08:44:05.128Z,925.83
2023-01-02T08:45:05.095Z,927.05
2023-01-02T08:46:05.145Z,928.18
2023-01-02T08:47:05.090Z,929.31
2023-01-02T08:48:20.081Z,930.3
2023-01-02T08:49:08.109Z,931.55
2023-01-02T08:50:05.102Z,932.39
2023-01-02T08:51:08.148Z,933.08
2023-01-02T08:52:05.125Z,933.61
2023-01-02T08:53:09.332Z,934.5
2023-01-02T08:54:05.123Z,935.79
2023-01-02T08:55:05.106Z,936.36
2023-01-02T08:56:05.153Z,937.49
2023-01-02T08:57:05.131Z,939.03
2023-01-02T08:58:05.171Z,939.92
2023-01-02T08:59:05.165Z,941.39
2023-01-02T09:00:08.120Z,942.46
2023-01-02T09:01:05.155Z,943.73
2023-01-02T09:02:05.225Z,945.22
2023-01-02T09:03:05.256Z,946.75
2023-01-02T09:04:11.823Z,948.55
2023-01-02T09:05:05.216Z,949.65
2023-01-02T09:06:05.184Z,951.34
2023-01-02T09:07:05.157Z,952.53
2023-01-02T09:08:05.141Z,954.22
2023-01-02T09:09:10.982Z,955.25
2023-01-02T09:10:05.246Z,956.59
2023-01-02T09:11:05.148Z,957.69
2023-01-02T09:12:05.135Z,959.19
2023-01-02T09:13:05.151Z,959.98
2023-01-02T09:14:05.152Z,961.26
2023-01-02T09:15:05.160Z,962.81
2023-01-02T09:16:05.183Z,964
2023-01-02T09:17:05.147Z,965.18
2023-01-02T09:18:05.164Z,965.91
2023-01-02T09:19:05.137Z,967.06
2023-01-02T09:20:05.167Z,967.68
2023-01-02T09:21:05.167Z,968.72
2023-01-02T09:22:05.170Z,969.71
2023-01-02T09:23:05.185Z,970.35
2023-01-02T09:24:05.161Z,971.08
2023-01-02T09:25:05.193Z,972.03
2023-01-02T09:26:05.160Z,972.7
2023-01-02T09:27:05.193Z,973.45
2023-01-02T09:28:05.176Z,974.18
2023-01-02T09:29:05.231Z,975.13
2023-01-02T09:30:05.182Z,976.5
2023-01-02T09:31:10.213Z,977.39
2023-01-02T09:32:05.189Z,978.72
2023-01-02T09:33:05.184Z,979.81
2023-01-02T09:34:05.195Z,981.19
2023-01-02T09:35:05.184Z,982.45
2023-01-02T09:36:05.174Z,983.13
2023-01-02T09:37:05.185Z,984.34
2023-01-02T09:38:05.178Z,985.59
2023-01-02T09:39:05.199Z,986.55
2023-01-02T09:40:05.172Z,987.52
2023-01-02T09:41:05.184Z,988.95
2023-01-02T09:42:05.300Z,990.08
2023-01-02T09:43:05.229Z,991.22
2023-01-02T09:44:05.182Z,991.84
2023-01-02T09:45:08.714Z,993.27
2023-01-02T09:46:05.346Z,994.55
2023-01-02T09:47:05.225Z,996.21
2023-01-02T09:48:05.213Z,997.22
2023-01-02T09:49:05.199Z,998.72
2023-01-02T09:50:05.200Z,1000.35
2023-01-02T09:51:07.676Z,1001.14
2023-01-02T09:52:05.225Z,1002.52
2023-01-02T09:53:05.212Z,1003.83
2023-01-02T09:54:05.201Z,1005.07
2023-01-02T09:55:05.239Z,1006.31
2023-01-02T09:56:05.227Z,1007.79
2023-01-02T09:57:05.237Z,1008.95
2023-01-02T09:58:05.243Z,1010.34
2023-01-02T09:59:05.233Z,1011.54
2023-01-02T10:00:05.226Z,1012.79
2023-01-02T10:01:05.248Z,1014.02
2023-01-02T10:02:05.241Z,1015.14
2023-01-02T10:03:08.163Z,1015.9
2023-01-02T10:04:05.304Z,1017.23
2023-01-02T10:05:05.242Z,1018.36
2023-01-02T10:06:05.224Z,1018.89
2023-01-02T10:07:05.269Z,1020.37
2023-01-02T10:08:05.245Z,1020.99
2023-01-02T10:09:05.269Z,1022.39
2023-01-02T10:10:05.247Z,1022.95
2023-01-02T10:11:05.252Z,1024.4
2023-01-02T10:12:05.269Z,1025.83
2023-01-02T10:13:05.272Z,1027.18
2023-01-02T10:14:21.092Z,1028.64
2023-01-02T10:15:05.248Z,1029.94
2023-01-02T10:16:05.312Z,1031.26
2023-01-02T10:17:05.258Z,1032.35
2023-01-02T10:18:05.262Z,1033.35
2023-01-02T10:19:05.246Z,1034.48
2023-01-02T10:20:05.262Z,1035.24
2023-01-02T10:21:05.264Z,1036.08
2023-01-02T10:22:05.251Z,1037
2023-01-02T10:23:05.273Z,1037.43
2023-01-02T10:24:05.244Z,1038.65
2023-01-02T10:25:05.332Z,1039.14
2023-01-02T10:26:05.271Z,1040.54
2023-01-02T10:27:05.339Z,1040.97
2023-01-02T10:28:05.292Z,1041.59
2023-01-02T10:29:05.268Z,1042.55
2023-01-02T10:30:05.302Z,1043.04
2023-01-02T10:31:07.334Z,1044.07
2023-01-02T10:32:05.267Z,1044.81
2023-01-02T10:33:05.296Z,1045.9
2023-01-02T10:34:05.305Z,1046.43
2023-01-02T10:35:05.309Z,1046.99
2023-01-02T10:36:05.276Z,1047.63
2023-01-02T10:37:08.049Z,1048.31
2023-01-02T10:38:05.315Z,1049.4
2023-01-02T10:39:05.279Z,1049.89
2023-01-02T10:40:05.290Z,1050.98
2023-01-02T10:41:05.297Z,1051.73
2023-01-02T10:42:05.302Z,1052.69
2023-01-02T10:43:05.408Z,1053.48
2023-01-02T10:44:05.334Z,1054.23
2023-01-02T10:45:05.287Z,1054.96
2023-01-02T10:46:05.416Z,1055.79
2023-01-02T10:47:05.361Z,1056.54
2023-01-02T10:48:05.344Z,1056.72
2023-01-02T10:49:05.333Z,1057.27
2023-01-02T10:50:05.341Z,1057.58
2023-01-02T10:51:05.347Z,1058.32
2023-01-02T10:52:05.328Z,1058.79
2023-01-02T10:53:05.342Z,1059.46
2023-01-02T10:54:08.324Z,1060.13
2023-01-02T10:55:08.020Z,1060.66
2023-01-02T10:56:05.339Z,1061.29
2023-01-02T10:57:05.357Z,1061.53
2023-01-02T10:58:05.316Z,1062.32
2023-01-02T10:59:05.380Z,1062.87
2023-01-02T11:00:05.314Z,1063.53
2023-01-02T11:01:05.366Z,1064.1
2023-01-02T11:02:05.418Z,1064.88
2023-01-02T11:03:05.428Z,1065.48
2023-01-02T11:04:05.310Z,1065.83
2023-01-02T11:05:08.091Z,1066.62
2023-01-02T11:06:23.498Z,1066.88
2023-01-02T11:07:05.385Z,1067.53
2023-01-02T11:08:05.378Z,1068.06
2023-01-02T11:09:05.341Z,1068.5
2023-01-02T11:10:05.379Z,1069
2023-01-02T11:11:05.361Z,1069.87
2023-01-02T11:12:05.334Z,1070.33
2023-01-02T11:13:05.344Z,1070.86
2023-01-02T11:14:05.364Z,1071.09
2023-01-02T11:15:05.403Z,1071.97
2023-01-02T11:16:08.239Z,1072.4
2023-01-02T11:17:05.341Z,1072.81
2023-01-02T11:18:05.338Z,1073.26
2023-01-02T11:19:05.396Z,1073.74
2023-01-02T11:20:05.401Z,1073.99
2023-01-02T11:21:05.366Z,1074.92
2023-01-02T11:22:05.372Z,1075.23
2023-01-02T11:23:05.367Z,1075.71
2023-01-02T11:24:05.389Z,1076.76
2023-01-02T11:25:05.366Z,1077.73
2023-01-02T11:26:05.385Z,1078.45
2023-01-02T11:27:08.453Z,1079.33
2023-01-02T11:28:05.355Z,1080.14
2023-01-02T11:29:05.355Z,1080.65
2023-01-02T11:30:05.361Z,1081.19
2023-01-02T11:31:05.478Z,1081.77
2023-01-02T11:32:05.415Z,1082.4
2023-01-02T11:33:05.370Z,1083.03
2023-01-02T11:34:05.367Z,1083.98
2023-01-02T11:35:05.364Z,1084.52
2023-01-02T11:36:05.446Z,1085.51
2023-01-02T11:37:05.371Z,1086.24
2023-01-02T11:38:05.433Z,1087.12
2023-01-02T11:39:05.371Z,1087.96
2023-01-02T11:40:05.380Z,1088.95
2023-01-02T11:41:05.382Z,1089.75
2023-01-02T11:42:05.384Z,1090.66
2023-01-02T11:43:05.463Z,1091.4
2023-01-02T11:44:05.390Z,1091.75
2023-01-02T11:45:05.411Z,1092.09
2023-01-02T11:46:05.460Z,1092.45
2023-01-02T11:47:05.455Z,1092.6
2023-01-02T11:48:05.470Z,1093.22
2023-01-02T11:49:05.388Z,1093.34
2023-01-02T11:50:05.398Z,1093.49
2023-01-02T11:51:05.452Z,1093.9
2023-01-02T11:52:05.405Z,1094.04
2023-01-02T11:53:05.470Z,1094.28
2023-01-02T11:54:05.462Z,1094.97
2023-01-02T11:55:05.406Z,1095.27
2023-01-02T11:56:05.406Z,1095.38
2023-01-02T11:57:05.406Z,1095.72
2023-01-02T11:58:05.453Z,1095.91
2023-01-02T11:59:06.429Z,1096.25
2023-01-02T12:00:05.444Z,1096.78
2023-01-02T12:01:05.432Z,1096.55
2023-01-02T12:02:05.523Z,1096.95
2023-01-02T12:03:05.629Z,1097.36
2023-01-02T12:04:05.498Z,1097.74
2023-01-02T12:05:05.461Z,1097.85
2023-01-02T12:06:05.508Z,1097.91
2023-01-02T12:07:05.428Z,1098.18
2023-01-02T12:08:05.483Z,1098.64
2023-01-02T12:09:05.426Z,1098.81
2023-01-02T12:10:08.446Z,1099.19
2023-01-02T12:11:05.447Z,1099.4
2023-01-02T12:12:05.477Z,1099.54
2023-01-02T12:13:05.451Z,1099.73
2023-01-02T12:14:05.447Z,1100
2023-01-02T12:15:05.437Z,1100.02
2023-01-02T12:16:05.486Z,1100.29
2023-01-02T12:17:05.489Z,1100.38
2023-01-02T12:18:05.460Z,1100.64
2023-01-02T12:19:05.495Z,1100.77
2023-01-02T12:20:06.118Z,1100.76
2023-01-02T12:21:08.433Z,1101.08
2023-01-02T12:22:05.446Z,1101.43
2023-01-02T12:23:05.512Z,1101.66
2023-01-02T12:24:05.461Z,1101.77
2023-01-02T12:25:05.454Z,1102.14
2023-01-02T12:26:09.036Z,1102.48
2023-01-02T12:27:05.453Z,1102.71
2023-01-02T12:28:05.477Z,1102.99
2023-01-02T12:29:05.508Z,1103.23
2023-01-02T12:30:05.465Z,1103.33
2023-01-02T12:31:05.473Z,1103.72